createdAt,value
2023-03-11T00:00:38.339Z,98164.63
2023-03-11T00:03:09.315Z,98167.28
2023-03-11T00:05:39.115Z,98170.59
2023-03-11T00:08:08.361Z,98186.53
2023-03-11T00:10:38.452Z,98200.03
2023-03-11T00:13:07.700Z,98214.91
2023-03-11T00:15:35.643Z,98229.97
2023-03-11T00:18:04.004Z,98238.28
2023-03-11T00:20:34.588Z,98250.47
2023-03-11T00:23:03.330Z,98263.19
2023-03-11T00:25:32.660Z,98271.88
2023-03-11T00:28:00.980Z,98274.25
2023-03-11T00:30:29.555Z,98287.31
2023-03-11T00:32:59.143Z,98292.72
2023-03-11T00:35:29.279Z,98296.81
2023-03-11T00:37:59.884Z,98299.53
2023-03-11T00:40:30.794Z,98303.09
2023-03-11T00:42:58.856Z,98316.03
2023-03-11T00:45:27.606Z,98317.91
2023-03-11T00:47:55.786Z,98326.81
2023-03-11T00:50:25.755Z,98328.81
2023-03-11T00:52:54.190Z,98326.88
2023-03-11T00:55:25.500Z,98338.25
2023-03-11T00:57:54.320Z,98333.63
2023-03-11T01:00:24.360Z,98336.06
2023-03-11T01:02:52.805Z,98347.16
2023-03-11T01:05:21.747Z,98349.13
2023-03-11T01:07:49.562Z,98357.47
2023-03-11T01:10:17.859Z,98370.69
2023-03-11T01:12:46.912Z,98372.56
2023-03-11T01:15:19.619Z,98375.81
2023-03-11T01:17:47.327Z,98392.78
2023-03-11T01:20:16.002Z,98396.59
2023-03-11T01:22:43.768Z,98399.31
2023-03-11T01:25:14.850Z,98406.13
2023-03-11T01:27:43.124Z,98415.28
2023-03-11T01:30:16.336Z,98422.28
2023-03-11T01:32:44.786Z,98435.22
2023-03-11T01:35:14.146Z,98434.44
2023-03-11T01:37:42.000Z,98442.28
2023-03-11T01:40:16.012Z,98446.06
2023-03-11T01:42:43.720Z,98448.47
2023-03-11T01:45:34.008Z,98463.59
2023-03-11T01:48:01.747Z,98475.50
2023-03-11T01:50:33.851Z,98481.97
2023-03-11T01:53:01.772Z,98491.41
2023-03-11T01:55:30.305Z,98493.03
2023-03-11T01:57:58.161Z,98502.22
2023-03-11T02:00:27.348Z,98508.16
2023-03-11T02:02:56.670Z,98510.84
2023-03-11T02:05:26.018Z,98524.63
2023-03-11T02:07:55.952Z,98534.09
2023-03-11T02:10:23.895Z,98530.84
2023-03-11T02:12:52.515Z,98545.13
2023-03-11T02:15:20.228Z,98548.13
2023-03-11T02:17:49.249Z,98561.63
2023-03-11T02:20:28.609Z,98567.56
2023-03-11T02:22:58.088Z,98581.59
2023-03-11T02:25:35.633Z,98595.09
2023-03-11T02:28:08.670Z,98605.91
2023-03-11T02:30:37.610Z,98611.03
2023-03-11T02:33:05.455Z,98615.09
2023-03-11T02:35:33.216Z,98640.19
2023-03-11T02:38:00.939Z,98632.66
2023-03-11T02:40:45.048Z,98648.56
2023-03-11T02:43:16.907Z,98664.78
2023-03-11T02:45:46.563Z,98668.81
2023-03-11T02:48:15.723Z,98683.66
2023-03-11T02:50:44.275Z,98695.00
2023-03-11T02:53:11.951Z,98704.75
2023-03-11T02:55:39.674Z,98716.34
2023-03-11T02:58:07.385Z,98727.72
2023-03-11T03:00:36.482Z,98734.19
2023-03-11T03:03:04.166Z,98744.16
2023-03-11T03:05:32.005Z,98753.03
2023-03-11T03:07:59.771Z,98762.81
2023-03-11T03:10:27.616Z,98759.59
2023-03-11T03:12:55.359Z,98786.84
2023-03-11T03:15:23.106Z,98785.22
2023-03-11T03:17:52.240Z,98790.94
2023-03-11T03:20:22.650Z,98807.34
2023-03-11T03:22:51.284Z,98799.25
2023-03-11T03:25:19.260Z,98817.84
2023-03-11T03:27:47.104Z,98820.84
2023-03-11T03:30:15.188Z,98833.50
2023-03-11T03:32:42.944Z,98852.41
2023-03-11T03:35:12.251Z,98862.16
2023-03-11T03:37:40.249Z,98867.00
2023-03-11T03:40:09.626Z,98883.75
2023-03-11T03:42:38.271Z,98888.38
2023-03-11T03:45:08.216Z,98895.63
2023-03-11T03:47:37.168Z,98905.06
2023-03-11T03:50:05.427Z,98903.38
2023-03-11T03:52:35.993Z,98927.66
2023-03-11T03:55:04.223Z,98930.91
2023-03-11T03:57:31.886Z,98938.78
2023-03-11T03:59:59.531Z,98958.00
2023-03-11T04:02:27.345Z,98963.41
2023-03-11T04:04:55.157Z,98969.03
2023-03-11T04:07:22.811Z,98972.81
2023-03-11T04:09:51.837Z,98983.03
2023-03-11T04:12:19.529Z,98983.84
2023-03-11T04:14:47.228Z,98992.22
2023-03-11T04:17:17.697Z,98998.16
2023-03-11T04:19:45.620Z,99008.09
2023-03-11T04:22:13.861Z,99014.09
2023-03-11T04:24:41.622Z,99030.00
2023-03-11T04:27:10.706Z,99020.03
2023-03-11T04:29:38.588Z,99038.88
2023-03-11T04:32:07.007Z,99036.75
2023-03-11T04:34:34.836Z,99044.31
2023-03-11T04:37:02.577Z,99052.31
2023-03-11T04:39:30.244Z,99069.69
2023-03-11T04:41:58.093Z,99074.00
2023-03-11T04:44:27.154Z,99075.84
2023-03-11T04:46:54.809Z,99088.38
2023-03-11T04:49:22.480Z,99090.31
2023-03-11T04:51:50.113Z,99101.41
2023-03-11T04:54:17.743Z,99104.00
2023-03-11T04:56:45.431Z,99106.72
2023-03-11T04:59:13.104Z,99115.25
2023-03-11T05:01:42.155Z,99114.44
2023-03-11T05:04:11.781Z,99126.13
2023-03-11T05:06:39.630Z,99136.28
2023-03-11T05:09:07.479Z,99136.25
2023-03-11T05:11:35.170Z,99148.53
2023-03-11T05:14:02.843Z,99153.94
2023-03-11T05:16:30.474Z,99163.41
2023-03-11T05:18:59.482Z,99171.50
2023-03-11T05:21:27.174Z,99179.81
2023-03-11T05:23:54.830Z,99193.53
2023-03-11T05:26:22.535Z,99185.22
2023-03-11T05:28:50.163Z,99201.31
2023-03-11T05:31:17.937Z,99214.53
2023-03-11T05:33:45.609Z,99233.06
2023-03-11T05:36:14.645Z,99233.91
2023-03-11T05:38:42.357Z,99237.63
2023-03-11T05:41:10.038Z,99237.63
2023-03-11T05:43:37.681Z,99242.91
2023-03-11T05:46:05.844Z,99249.38
2023-03-11T05:48:33.578Z,99256.16
2023-03-11T05:51:01.188Z,99259.22
2023-03-11T05:53:30.221Z,99280.97
2023-03-11T05:55:58.842Z,99274.06
2023-03-11T05:58:27.017Z,99282.06
2023-03-11T06:00:54.825Z,99293.88
2023-03-11T06:03:23.075Z,99302.88
2023-03-11T06:05:52.723Z,99300.72
2023-03-11T06:08:21.978Z,99304.81
2023-03-11T06:10:51.047Z,99318.56
2023-03-11T06:13:18.723Z,99333.38
2023-03-11T06:15:46.791Z,99328.53
2023-03-11T06:18:14.452Z,99329.44
2023-03-11T06:20:42.150Z,99338.59
2023-03-11T06:23:10.390Z,99343.75
2023-03-11T06:25:38.014Z,99352.50
2023-03-11T06:28:07.162Z,99358.56
2023-03-11T06:30:34.773Z,99359.13
2023-03-11T06:33:02.463Z,99366.66
2023-03-11T06:35:30.121Z,99363.63
2023-03-11T06:37:57.805Z,99376.00
2023-03-11T06:40:25.513Z,99385.72
2023-03-11T06:42:53.282Z,99389.78
2023-03-11T06:45:22.338Z,99391.59
2023-03-11T06:47:49.975Z,99402.41
2023-03-11T06:50:17.915Z,99412.72
2023-03-11T06:52:45.595Z,99424.34
2023-03-11T06:55:13.214Z,99419.44
2023-03-11T06:57:40.891Z,99443.00
2023-03-11T07:00:12.190Z,99438.91
2023-03-11T07:02:41.205Z,99449.47
2023-03-11T07:05:09.617Z,99460.81
2023-03-11T07:07:37.318Z,99464.84
2023-03-11T07:10:05.628Z,99467.47
2023-03-11T07:12:33.335Z,99469.53
2023-03-11T07:15:01.222Z,99474.50
2023-03-11T07:17:29.092Z,99484.56
2023-03-11T07:19:58.210Z,99485.38
2023-03-11T07:22:26.004Z,99491.78
2023-03-11T07:24:53.896Z,99500.22
2023-03-11T07:27:22.386Z,99507.13
2023-03-11T07:29:49.997Z,99522.53
2023-03-11T07:32:17.986Z,99530.06
2023-03-11T07:34:45.714Z,99539.31
2023-03-11T07:37:15.417Z,99547.16
2023-03-11T07:39:43.188Z,99561.63
2023-03-11T07:42:10.916Z,99566.66
2023-03-11T07:44:38.662Z,99572.44
2023-03-11T07:47:06.907Z,99585.72
2023-03-11T07:49:34.735Z,99583.59
2023-03-11T07:52:02.449Z,99592.66
2023-03-11T07:54:31.463Z,99594.97
2023-03-11T07:56:59.156Z,99604.22
2023-03-11T07:59:26.903Z,99611.50
2023-03-11T08:01:54.528Z,99615.09
2023-03-11T08:04:22.212Z,99608.63
2023-03-11T08:06:49.885Z,99627.66
2023-03-11T08:09:17.807Z,99630.50
2023-03-11T08:11:48.769Z,99644.09
2023-03-11T08:14:17.346Z,99645.16
2023-03-11T08:16:45.000Z,99655.41
2023-03-11T08:19:13.560Z,99674.72
2023-03-11T08:21:41.470Z,99669.41
2023-03-11T08:24:11.742Z,99668.00
2023-03-11T08:26:39.408Z,99675.56
2023-03-11T08:29:08.578Z,99682.69
2023-03-11T08:31:36.317Z,99688.69
2023-03-11T08:34:06.143Z,99691.72
2023-03-11T08:36:34.688Z,99697.34
2023-03-11T08:39:02.913Z,99703.69
2023-03-11T08:41:30.660Z,99706.47
2023-03-11T08:43:58.372Z,99716.06
2023-03-11T08:46:29.312Z,99729.75
2023-03-11T08:49:00.797Z,99737.84
2023-03-11T08:51:28.838Z,99737.63
2023-03-11T08:53:56.549Z,99747.94
2023-03-11T08:56:24.429Z,99753.13
2023-03-11T08:58:52.623Z,99760.22
2023-03-11T09:01:21.135Z,99769.50
2023-03-11T09:03:50.367Z,99771.63
2023-03-11T09:06:18.706Z,99770.63
2023-03-11T09:08:47.466Z,99777.41
2023-03-11T09:11:17.703Z,99783.66
2023-03-11T09:13:45.761Z,99775.03
2023-03-11T09:16:14.689Z,99786.78
2023-03-11T09:18:42.474Z,99793.56
2023-03-11T09:21:12.097Z,99796.53
2023-03-11T09:23:42.868Z,99796.69
2023-03-11T09:26:11.804Z,99796.91
2023-03-11T09:28:39.810Z,99808.38
2023-03-11T09:31:07.544Z,99820.19
2023-03-11T09:33:38.509Z,99821.41
2023-03-11T09:36:07.171Z,99821.41
2023-03-11T09:38:36.220Z,99821.66
2023-03-11T09:41:09.395Z,99835.03
2023-03-11T09:43:49.312Z,99834.03
2023-03-11T09:46:36.504Z,99834.84
2023-03-11T09:49:10.818Z,99846.81
2023-03-11T09:51:43.694Z,99853.06
2023-03-11T09:54:14.592Z,99851.84
2023-03-11T09:56:44.885Z,99850.84
2023-03-11T09:59:20.630Z,99856.34
2023-03-11T10:01:51.011Z,99856.47
2023-03-11T10:04:23.384Z,99857.06
2023-03-11T10:06:51.667Z,99863.63
2023-03-11T10:09:39.281Z,99866.19
2023-03-11T10:12:19.853Z,99868.91
2023-03-11T10:14:56.740Z,99882.69
2023-03-11T10:17:40.750Z,99888.34
2023-03-11T10:20:14.979Z,99888.09
2023-03-11T10:22:51.418Z,99896.06
2023-03-11T10:25:23.761Z,99902.06
2023-03-11T10:27:56.076Z,99906.41
2023-03-11T10:30:29.900Z,99917.56
2023-03-11T10:33:02.429Z,99922.31
2023-03-11T10:35:37.675Z,99924.28
2023-03-11T10:38:12.770Z,99927.78
2023-03-11T10:40:44.684Z,99926.81
2023-03-11T10:43:15.448Z,99939.31
2023-03-11T10:45:45.762Z,99931.50
2023-03-11T10:48:16.020Z,99945.53
2023-03-11T10:50:50.823Z,99935.63
2023-03-11T10:53:20.875Z,99930.44
2023-03-11T10:55:51.567Z,99934.47
2023-03-11T10:58:22.013Z,99936.50
2023-03-11T11:01:00.608Z,99933.69
2023-03-11T11:03:29.456Z,99936.91
2023-03-11T11:06:04.202Z,99943.88
2023-03-11T11:08:32.837Z,99952.06
2023-03-11T11:11:03.654Z,99951.88
2023-03-11T11:13:34.340Z,99956.69
2023-03-11T11:16:04.250Z,99950.00
2023-03-11T11:18:34.762Z,99950.63
2023-03-11T11:21:04.267Z,99960.72
2023-03-11T11:23:42.317Z,99961.31
2023-03-11T11:26:20.296Z,99953.00
2023-03-11T11:28:48.050Z,99966.34
2023-03-11T11:31:25.458Z,99964.75
2023-03-11T11:33:55.531Z,99967.38
2023-03-11T11:36:28.681Z,99972.72
2023-03-11T11:38:57.070Z,99986.50
2023-03-11T11:41:28.495Z,99974.59
2023-03-11T11:43:58.381Z,99978.69
2023-03-11T11:46:31.852Z,99982.00
2023-03-11T11:49:08.086Z,99978.69
2023-03-11T11:51:41.277Z,99971.47
2023-03-11T11:54:18.106Z,99980.50
2023-03-11T11:56:47.690Z,99985.94
2023-03-11T11:59:18.762Z,99986.84
2023-03-11T12:01:59.234Z,99990.63
2023-03-11T12:04:41.554Z,99989.56
2023-03-11T12:07:22.941Z,99991.34
2023-03-11T12:09:57.544Z,99992.19
2023-03-11T12:12:33.739Z,99992.91
2023-03-11T12:15:08.310Z,100000.53
2023-03-11T12:17:39.839Z,99993.19
2023-03-11T12:20:12.805Z,100008.09
2023-03-11T12:22:54.549Z,100006.50
2023-03-11T12:25:32.797Z,100020.69
2023-03-11T12:28:10.702Z,100017.47
2023-03-11T12:30:43.858Z,100019.94
2023-03-11T12:33:18.359Z,100016.66
2023-03-11T12:35:53.772Z,100023.50
2023-03-11T12:38:29.723Z,100023.78
2023-03-11T12:41:03.567Z,100021.88
2023-03-11T12:44:01.482Z,100030.34
2023-03-11T12:47:11.519Z,100036.69
2023-03-11T12:49:40.946Z,100037.03
2023-03-11T12:52:26.432Z,100034.63
2023-03-11T12:55:38.609Z,100049.47
2023-03-11T12:58:38.314Z,100045.53
2023-03-11T13:01:44.389Z,100049.38
2023-03-11T13:04:26.438Z,100041.97
2023-03-11T13:07:15.279Z,100044.88
2023-03-11T13:09:43.045Z,100046.13
2023-03-11T13:12:40.122Z,100048.66
2023-03-11T13:15:36.724Z,100061.72
2023-03-11T13:18:17.740Z,100062.22
2023-03-11T13:20:49.642Z,100072.66
2023-03-11T13:23:29.405Z,100068.13
2023-03-11T13:26:31.336Z,100080.19
2023-03-11T13:29:30.190Z,100078.38
2023-03-11T13:32:12.713Z,100089.75
2023-03-11T13:34:49.240Z,100085.72
2023-03-11T13:37:27.874Z,100091.47
2023-03-11T13:40:07.125Z,100096.72
2023-03-11T13:42:38.552Z,100101.72
2023-03-11T13:45:13.752Z,100111.41
2023-03-11T13:47:47.015Z,100112.91
2023-03-11T13:50:24.057Z,100112.53
2023-03-11T13:52:54.323Z,100121.59
2023-03-11T13:55:24.207Z,100123.72
2023-03-11T13:57:53.588Z,100128.34
2023-03-11T14:00:24.397Z,100133.84
2023-03-11T14:02:55.207Z,100134.38
2023-03-11T14:05:27.816Z,100130.25
2023-03-11T14:07:55.544Z,100130.84
2023-03-11T14:10:27.272Z,100131.00
2023-03-11T14:13:07.071Z,100140.91
2023-03-11T14:15:44.809Z,100138.81
2023-03-11T14:18:33.893Z,100140.44
2023-03-11T14:21:04.745Z,100129.97
2023-03-11T14:23:36.281Z,100137.75
2023-03-11T14:26:08.396Z,100140.53
2023-03-11T14:28:41.228Z,100143.81
2023-03-11T14:31:09.230Z,100159.06
2023-03-11T14:33:36.869Z,100162.50
2023-03-11T14:36:15.679Z,100166.47
2023-03-11T14:38:44.634Z,100177.88
2023-03-11T14:41:16.499Z,100178.03
2023-03-11T14:43:49.243Z,100171.91
2023-03-11T14:46:21.251Z,100179.13
2023-03-11T14:48:49.312Z,100181.47
2023-03-11T14:51:23.603Z,100188.59
2023-03-11T14:53:57.510Z,100203.56
2023-03-11T14:56:27.549Z,100191.78
2023-03-11T14:59:07.704Z,100209.38
2023-03-11T15:01:40.560Z,100199.84
2023-03-11T15:04:12.344Z,100204.69
2023-03-11T15:06:43.883Z,100198.63
2023-03-11T15:09:14.252Z,100203.56
2023-03-11T15:11:47.041Z,100202.94
2023-03-11T15:14:24.190Z,100196.56
2023-03-11T15:16:53.220Z,100201.28
2023-03-11T15:19:32.302Z,100199.59
2023-03-11T15:22:06.317Z,100203.38
2023-03-11T15:24:34.993Z,100204.88
2023-03-11T15:27:05.470Z,100218.13
2023-03-11T15:29:33.695Z,100211.19
2023-03-11T15:32:01.976Z,100214.69
2023-03-11T15:34:31.902Z,100220.00
2023-03-11T15:37:07.831Z,100211.88
2023-03-11T15:39:44.943Z,100213.78
2023-03-11T15:42:24.413Z,100209.47
2023-03-11T15:45:12.031Z,100211.38
2023-03-11T15:47:40.576Z,100213.13
2023-03-11T15:50:24.035Z,100215.50
2023-03-11T15:52:55.749Z,100222.66
2023-03-11T15:55:24.064Z,100223.38
2023-03-11T15:57:54.919Z,100233.66
2023-03-11T16:00:24.895Z,100233.59
2023-03-11T16:02:54.462Z,100236.88
2023-03-11T16:05:23.637Z,100236.56
2023-03-11T16:07:51.714Z,100247.97
2023-03-11T16:10:24.140Z,100248.69
2023-03-11T16:12:52.087Z,100251.44
2023-03-11T16:15:24.786Z,100249.75
2023-03-11T16:17:53.346Z,100262.22
2023-03-11T16:20:22.477Z,100273.38
2023-03-11T16:22:53.623Z,100263.44
2023-03-11T16:25:26.315Z,100269.34
2023-03-11T16:27:56.449Z,100275.50
2023-03-11T16:30:26.553Z,100272.91
2023-03-11T16:32:54.336Z,100269.47
2023-03-11T16:35:22.386Z,100279.31
2023-03-11T16:37:50.563Z,100280.00
2023-03-11T16:40:21.725Z,100274.13
2023-03-11T16:42:50.800Z,100283.44
2023-03-11T16:45:19.249Z,100286.06
2023-03-11T16:47:47.048Z,100285.34
2023-03-11T16:50:14.796Z,100294.53
2023-03-11T16:52:42.545Z,100288.66
2023-03-11T16:55:11.141Z,100297.47
2023-03-11T16:57:39.417Z,100291.22
2023-03-11T17:00:11.546Z,100293.94
2023-03-11T17:02:39.556Z,100295.25
2023-03-11T17:05:09.567Z,100300.78
2023-03-11T17:07:39.617Z,100307.47
2023-03-11T17:10:08.316Z,100297.22
2023-03-11T17:12:36.745Z,100306.53
2023-03-11T17:15:06.726Z,100300.88
2023-03-11T17:17:35.768Z,100310.53
2023-03-11T17:20:04.065Z,100315.47
2023-03-11T17:22:32.413Z,100316.78
2023-03-11T17:25:00.101Z,100322.75
2023-03-11T17:27:32.032Z,100329.44
2023-03-11T17:29:59.907Z,100326.75
2023-03-11T17:32:27.611Z,100324.59
2023-03-11T17:34:56.640Z,100327.69
2023-03-11T17:37:24.359Z,100322.50
2023-03-11T17:39:52.190Z,100327.78
2023-03-11T17:42:19.914Z,100320.72
2023-03-11T17:44:51.784Z,100326.94
2023-03-11T17:47:21.240Z,100334.50
2023-03-11T17:49:49.734Z,100332.97
2023-03-11T17:52:18.879Z,100334.94
2023-03-11T17:54:46.819Z,100329.78
2023-03-11T17:57:14.437Z,100337.44
2023-03-11T17:59:42.089Z,100332.47
2023-03-11T18:02:14.177Z,100342.38
2023-03-11T18:04:45.874Z,100339.75
2023-03-11T18:07:13.970Z,100333.38
2023-03-11T18:09:42.974Z,100339.50
2023-03-11T18:12:10.773Z,100328.09
2023-03-11T18:14:38.490Z,100333.94
2023-03-11T18:17:06.309Z,100334.06
2023-03-11T18:19:34.385Z,100335.16
2023-03-11T18:22:02.193Z,100356.78
2023-03-11T18:24:29.989Z,100343.22
2023-03-11T18:26:59.027Z,100343.56
2023-03-11T18:29:26.762Z,100346.34
2023-03-11T18:31:54.455Z,100345.69
2023-03-11T18:34:23.137Z,100353.56
2023-03-11T18:36:50.789Z,100343.91
2023-03-11T18:39:18.443Z,100349.06
2023-03-11T18:41:46.096Z,100344.22
2023-03-11T18:44:15.346Z,100354.94
2023-03-11T18:46:43.408Z,100349.53
2023-03-11T18:49:12.864Z,100346.59
2023-03-11T18:51:41.021Z,100354.34
2023-03-11T18:54:08.987Z,100349.47
2023-03-11T18:56:37.236Z,100352.41
2023-03-11T18:59:05.124Z,100350.19
2023-03-11T19:01:34.489Z,100350.84
2023-03-11T19:04:02.209Z,100352.78
2023-03-11T19:06:30.459Z,100350.00
2023-03-11T19:08:58.674Z,100352.56
2023-03-11T19:11:26.971Z,100362.34
2023-03-11T19:13:54.958Z,100348.88
2023-03-11T19:16:24.447Z,100355.13
2023-03-11T19:18:55.138Z,100356.25
2023-03-11T19:21:23.826Z,100348.41
2023-03-11T19:23:54.909Z,100354.16
2023-03-11T19:26:33.689Z,100360.31
2023-03-11T19:29:09.836Z,100354.81
2023-03-11T19:31:37.535Z,100354.22
2023-03-11T19:34:06.591Z,100357.53
2023-03-11T19:36:34.762Z,100359.22
2023-03-11T19:39:03.139Z,100352.38
2023-03-11T19:41:30.815Z,100356.72
2023-03-11T19:43:58.513Z,100349.81
2023-03-11T19:46:26.415Z,100364.44
2023-03-11T19:48:56.515Z,100365.41
2023-03-11T19:51:30.505Z,100366.03
2023-03-11T19:54:00.717Z,100368.13
2023-03-11T19:56:28.505Z,100359.88
2023-03-11T19:58:57.694Z,100360.69
2023-03-11T20:01:28.267Z,100364.97
2023-03-11T20:03:55.958Z,100365.13
2023-03-11T20:06:25.099Z,100366.09
2023-03-11T20:08:52.833Z,100356.94
2023-03-11T20:11:20.571Z,100352.56
2023-03-11T20:13:48.559Z,100355.53
2023-03-11T20:16:19.290Z,100357.38
2023-03-11T20:18:49.818Z,100365.19
2023-03-11T20:21:17.332Z,100368.44
2023-03-11T20:23:46.458Z,100354.47
2023-03-11T20:26:15.269Z,100355.38
2023-03-11T20:28:43.042Z,100354.09
2023-03-11T20:31:13.959Z,100361.59
2023-03-11T20:33:41.760Z,100368.56
2023-03-11T20:36:11.607Z,100364.44
2023-03-11T20:38:39.397Z,100368.44
2023-03-11T20:41:09.714Z,100371.03
2023-03-11T20:43:37.838Z,100372.78
2023-03-11T20:46:06.969Z,100378.34
2023-03-11T20:48:35.331Z,100377.13
2023-03-11T20:51:03.606Z,100380.50
2023-03-11T20:53:31.641Z,100381.34
2023-03-11T20:55:59.592Z,100376.53
2023-03-11T20:58:28.701Z,100377.81
2023-03-11T21:00:56.552Z,100376.44
2023-03-11T21:03:24.375Z,100371.22
2023-03-11T21:05:52.076Z,100372.78
2023-03-11T21:08:19.882Z,100374.66
2023-03-11T21:10:47.568Z,100373.00
2023-03-11T21:13:15.217Z,100370.09
2023-03-11T21:15:44.711Z,100378.13
2023-03-11T21:18:12.536Z,100374.06
2023-03-11T21:20:40.325Z,100379.44
2023-03-11T21:23:09.577Z,100374.88
2023-03-11T21:25:39.157Z,100379.97
2023-03-11T21:28:06.860Z,100380.59
2023-03-11T21:30:34.574Z,100375.50
2023-03-11T21:33:03.882Z,100379.13
2023-03-11T21:35:31.998Z,100375.56
2023-03-11T21:37:59.780Z,100369.50
2023-03-11T21:40:27.699Z,100372.47
2023-03-11T21:42:55.504Z,100375.56
2023-03-11T21:45:23.188Z,100375.56
2023-03-11T21:47:50.930Z,100371.88
2023-03-11T21:50:20.293Z,100364.97
2023-03-11T21:52:47.999Z,100364.88
2023-03-11T21:55:15.685Z,100364.81
2023-03-11T21:57:43.379Z,100364.44
2023-03-11T22:00:12.525Z,100348.47
2023-03-11T22:02:40.170Z,100362.66
2023-03-11T22:05:08.529Z,100352.22
2023-03-11T22:07:37.875Z,100361.91
2023-03-11T22:10:06.291Z,100360.84
2023-03-11T22:12:34.120Z,100362.66
2023-03-11T22:15:01.835Z,100365.88
2023-03-11T22:17:29.686Z,100370.22
2023-03-11T22:19:57.423Z,100371.59
2023-03-11T22:22:25.175Z,100369.75
2023-03-11T22:24:54.180Z,100369.50
2023-03-11T22:27:21.816Z,100361.97
2023-03-11T22:29:49.514Z,100366.19
2023-03-11T22:32:17.268Z,100366.41
2023-03-11T22:34:45.219Z,100364.28
2023-03-11T22:37:12.922Z,100367.66
2023-03-11T22:39:40.549Z,100367.38
2023-03-11T22:42:09.664Z,100370.28
2023-03-11T22:44:37.313Z,100372.09
2023-03-11T22:47:05.110Z,100375.03
2023-03-11T22:49:32.780Z,100377.13
2023-03-11T22:52:00.452Z,100372.25
2023-03-11T22:54:28.214Z,100378.91
2023-03-11T22:56:55.949Z,100380.50
2023-03-11T22:59:26.997Z,100383.66
2023-03-11T23:01:54.703Z,100381.84
2023-03-11T23:04:22.402Z,100380.22
2023-03-11T23:06:50.141Z,100372.31
2023-03-11T23:09:17.844Z,100376.72
2023-03-11T23:11:45.487Z,100376.97
2023-03-11T23:14:13.158Z,100376.72
2023-03-11T23:16:42.308Z,100383.97
2023-03-11T23:19:10.419Z,100378.09
2023-03-11T23:21:38.197Z,100381.16
2023-03-11T23:24:08.730Z,100377.13
2023-03-11T23:26:37.341Z,100379.50
2023-03-11T23:29:05.725Z,100378.56
2023-03-11T23:31:33.433Z,100389.56
2023-03-11T23:34:02.531Z,100385.88
2023-03-11T23:36:32.137Z,100375.31
2023-03-11T23:38:59.777Z,100381.31
2023-03-11T23:41:27.866Z,100383.78
2023-03-11T23:43:55.564Z,100384.03
2023-03-11T23:46:23.262Z,100381.84
2023-03-11T23:48:51.061Z,100392.72
2023-03-11T23:51:19.998Z,100391.88
2023-03-11T23:53:47.675Z,100390.09
2023-03-11T23:56:17.935Z,100392.34
2023-03-11T23:58:46.890Z,100392.94
